createdAt,value
2023-08-05T00:01:23.319Z,22.51
2023-08-05T00:03:50.598Z,22.53
2023-08-05T00:06:18.221Z,22.52
2023-08-05T00:08:45.851Z,22.52
2023-08-05T00:11:13.043Z,22.51
2023-08-05T00:13:40.301Z,22.49
2023-08-05T00:16:08.051Z,22.47
2023-08-05T00:18:35.373Z,22.44
2023-08-05T00:21:02.559Z,22.43
2023-08-05T00:23:29.741Z,22.39
2023-08-05T00:25:56.898Z,22.41
2023-08-05T00:28:24.178Z,22.32
2023-08-05T00:30:51.364Z,22.32
2023-08-05T00:33:18.629Z,22.26
2023-08-05T00:35:45.847Z,22.23
2023-08-05T00:38:13.058Z,22.14
2023-08-05T00:40:42.325Z,22.16
2023-08-05T00:43:09.615Z,22.13
2023-08-05T00:45:37.066Z,22.16
2023-08-05T00:48:04.538Z,22.14
2023-08-05T00:50:33.373Z,22.10
2023-08-05T00:53:01.107Z,22.12
2023-08-05T00:55:28.924Z,22.06
2023-08-05T00:57:56.199Z,22.14
2023-08-05T01:00:24.377Z,22.15
2023-08-05T01:02:51.633Z,22.13
2023-08-05T01:05:20.392Z,22.13
2023-08-05T01:07:48.673Z,22.11
2023-08-05T01:10:16.121Z,22.10
2023-08-05T01:12:43.549Z,22.04
2023-08-05T01:15:10.814Z,22.04
2023-08-05T01:17:38.152Z,22.00
2023-08-05T01:20:07.073Z,22.00
2023-08-05T01:22:56.408Z,21.89
2023-08-05T01:25:31.234Z,21.95
2023-08-05T01:28:00.921Z,21.90
2023-08-05T01:30:29.403Z,21.91
2023-08-05T01:33:00.422Z,21.89
2023-08-05T01:35:27.665Z,21.86
2023-08-05T01:37:54.960Z,21.81
2023-08-05T01:40:22.552Z,21.80
2023-08-05T01:42:50.350Z,21.81
2023-08-05T01:45:18.278Z,21.78
2023-08-05T01:47:45.484Z,21.75
2023-08-05T01:50:12.791Z,21.75
2023-08-05T01:52:40.013Z,21.72
2023-08-05T01:55:07.587Z,21.70
2023-08-05T01:57:34.877Z,21.72
2023-08-05T02:00:02.721Z,21.74
2023-08-05T02:02:41.843Z,21.69
2023-08-05T02:05:10.819Z,21.72
2023-08-05T02:07:38.083Z,21.64
2023-08-05T02:10:05.849Z,21.62
2023-08-05T02:12:33.346Z,21.60
2023-08-05T02:15:01.104Z,21.63
2023-08-05T02:17:33.074Z,21.88
2023-08-05T02:20:00.346Z,22.14
2023-08-05T02:22:27.591Z,22.33
2023-08-05T02:24:54.823Z,22.45
2023-08-05T02:27:22.131Z,22.55
2023-08-05T02:29:49.386Z,22.59
2023-08-05T02:32:17.934Z,22.60
2023-08-05T02:34:45.559Z,22.66
2023-08-05T02:37:12.769Z,22.73
2023-08-05T02:39:43.136Z,22.64
2023-08-05T02:42:10.382Z,22.66
2023-08-05T02:44:37.804Z,22.76
2023-08-05T02:47:05.298Z,22.81
2023-08-05T02:49:33.790Z,22.93
2023-08-05T02:52:01.128Z,23.00
2023-08-05T02:54:28.657Z,23.19
2023-08-05T02:56:55.858Z,23.45
2023-08-05T02:59:23.663Z,23.73
2023-08-05T03:01:51.073Z,23.77
2023-08-05T03:04:18.410Z,23.69
2023-08-05T03:06:45.774Z,23.81
2023-08-05T03:09:14.106Z,24.36
2023-08-05T03:11:41.494Z,24.21
2023-08-05T03:14:09.571Z,23.96
2023-08-05T03:16:38.869Z,23.91
2023-08-05T03:19:14.621Z,23.86
2023-08-05T03:21:42.736Z,23.72
2023-08-05T03:24:10.837Z,24.12
2023-08-05T03:26:40.288Z,24.25
2023-08-05T03:29:10.305Z,24.14
2023-08-05T03:31:38.522Z,24.98
2023-08-05T03:34:06.837Z,25.20
2023-08-05T03:36:35.384Z,24.64
2023-08-05T03:39:04.757Z,24.42
2023-08-05T03:41:32.000Z,24.50
2023-08-05T03:43:59.252Z,24.28
2023-08-05T03:46:26.561Z,24.33
2023-08-05T03:48:54.095Z,24.41
2023-08-05T03:51:21.511Z,24.28
2023-08-05T03:53:49.005Z,24.21
2023-08-05T03:56:20.454Z,24.63
2023-08-05T03:58:52.709Z,25.25
2023-08-05T04:01:23.127Z,24.98
2023-08-05T04:03:51.352Z,24.93
2023-08-05T04:06:21.760Z,25.58
2023-08-05T04:08:49.661Z,25.56
2023-08-05T04:11:16.813Z,25.26
2023-08-05T04:13:45.938Z,24.99
2023-08-05T04:16:13.321Z,24.89
2023-08-05T04:18:42.260Z,24.98
2023-08-05T04:21:11.446Z,24.92
2023-08-05T04:23:39.200Z,24.79
2023-08-05T04:26:06.561Z,24.83
2023-08-05T04:28:34.018Z,24.83
2023-08-05T04:31:01.545Z,24.78
2023-08-05T04:33:29.118Z,24.85
2023-08-05T04:35:58.457Z,24.74
2023-08-05T04:38:25.750Z,24.90
2023-08-05T04:40:53.098Z,25.51
2023-08-05T04:43:20.433Z,26.29
2023-08-05T04:45:52.042Z,26.11
2023-08-05T04:48:19.455Z,25.62
2023-08-05T04:50:46.739Z,25.31
2023-08-05T04:53:16.677Z,25.10
2023-08-05T04:55:43.975Z,25.11
2023-08-05T04:58:12.436Z,25.12
2023-08-05T05:00:40.080Z,25.15
2023-08-05T05:03:09.022Z,25.17
2023-08-05T05:05:36.922Z,25.21
2023-08-05T05:08:04.316Z,25.39
2023-08-05T05:10:31.536Z,25.43
2023-08-05T05:12:59.614Z,25.43
2023-08-05T05:15:27.546Z,25.45
2023-08-05T05:17:54.939Z,25.42
2023-08-05T05:20:22.329Z,25.47
2023-08-05T05:22:50.719Z,25.52
2023-08-05T05:25:36.382Z,25.58
2023-08-05T05:28:21.872Z,25.67
2023-08-05T05:30:49.160Z,25.66
2023-08-05T05:33:16.387Z,25.73
2023-08-05T05:35:43.614Z,25.76
2023-08-05T05:38:10.804Z,25.84
2023-08-05T05:40:41.801Z,25.60
2023-08-05T05:43:09.657Z,25.57
2023-08-05T05:45:36.927Z,25.57
2023-08-05T05:48:04.663Z,25.81
2023-08-05T05:50:31.996Z,25.96
2023-08-05T05:52:59.244Z,26.05
2023-08-05T05:55:26.445Z,26.10
2023-08-05T05:57:53.679Z,26.07
2023-08-05T06:00:20.888Z,25.83
2023-08-05T06:02:48.062Z,25.95
2023-08-05T06:05:15.364Z,26.11
2023-08-05T06:07:42.595Z,26.22
2023-08-05T06:10:10.105Z,25.97
2023-08-05T06:12:39.109Z,26.11
2023-08-05T06:15:09.006Z,25.90
2023-08-05T06:17:36.937Z,26.25
2023-08-05T06:20:06.072Z,26.45
2023-08-05T06:22:33.410Z,26.62
2023-08-05T06:25:00.754Z,26.52
2023-08-05T06:27:28.133Z,26.43
2023-08-05T06:29:55.435Z,26.63
2023-08-05T06:32:22.857Z,26.69
2023-08-05T06:34:50.076Z,26.68
2023-08-05T06:37:17.280Z,26.70
2023-08-05T06:39:44.519Z,26.35
2023-08-05T06:42:11.740Z,26.37
2023-08-05T06:44:44.852Z,26.16
2023-08-05T06:47:12.205Z,26.22
2023-08-05T06:49:39.517Z,26.17
2023-08-05T06:52:07.376Z,26.26
2023-08-05T06:54:37.780Z,26.52
2023-08-05T06:57:05.097Z,26.70
2023-08-05T06:59:32.406Z,26.83
2023-08-05T07:02:01.497Z,26.42
2023-08-05T07:04:28.924Z,26.51
2023-08-05T07:06:56.164Z,26.62
2023-08-05T07:09:23.367Z,26.42
2023-08-05T07:11:50.890Z,26.38
2023-08-05T07:14:18.272Z,26.34
2023-08-05T07:16:45.413Z,26.37
2023-08-05T07:19:12.588Z,26.38
2023-08-05T07:21:39.762Z,26.34
2023-08-05T07:24:06.978Z,26.57
2023-08-05T07:26:34.524Z,26.52
2023-08-05T07:29:01.714Z,26.42
2023-08-05T07:31:28.950Z,26.65
2023-08-05T07:33:56.186Z,27.00
2023-08-05T07:36:24.070Z,26.67
2023-08-05T07:38:52.787Z,26.81
2023-08-05T07:41:22.731Z,26.66
2023-08-05T07:43:51.342Z,26.75
2023-08-05T07:46:20.874Z,26.97
2023-08-05T07:48:51.449Z,27.29
2023-08-05T07:51:19.814Z,27.06
2023-08-05T07:53:49.293Z,26.85
2023-08-05T07:56:17.573Z,26.75
2023-08-05T07:58:48.023Z,27.10
2023-08-05T08:01:22.970Z,27.62
2023-08-05T08:04:03.194Z,27.72
2023-08-05T08:06:33.424Z,27.03
2023-08-05T08:09:00.607Z,27.08
2023-08-05T08:11:27.711Z,27.36
2023-08-05T08:13:54.960Z,27.50
2023-08-05T08:16:22.225Z,27.29
2023-08-05T08:18:49.531Z,27.53
2023-08-05T08:21:16.709Z,27.21
2023-08-05T08:23:44.123Z,27.27
2023-08-05T08:26:11.338Z,27.49
2023-08-05T08:28:38.512Z,27.82
2023-08-05T08:31:05.677Z,28.16
2023-08-05T08:33:32.994Z,28.06
2023-08-05T08:36:00.284Z,28.21
2023-08-05T08:38:27.657Z,28.32
2023-08-05T08:40:59.920Z,28.39
2023-08-05T08:43:29.027Z,28.50
2023-08-05T08:45:57.157Z,28.80
2023-08-05T08:48:25.332Z,29.02
2023-08-05T08:50:54.179Z,28.90
2023-08-05T08:53:22.996Z,28.93
2023-08-05T08:55:50.528Z,28.98
2023-08-05T08:58:17.781Z,29.00
2023-08-05T09:00:47.775Z,28.35
2023-08-05T09:03:15.245Z,28.64
2023-08-05T09:05:46.844Z,28.81
2023-08-05T09:08:14.536Z,28.84
2023-08-05T09:10:41.797Z,28.65
2023-08-05T09:13:09.411Z,28.34
2023-08-05T09:15:40.555Z,28.24
2023-08-05T09:18:09.872Z,28.44
2023-08-05T09:20:38.683Z,28.51
2023-08-05T09:23:08.849Z,28.48
2023-08-05T09:25:47.868Z,28.43
2023-08-05T09:28:15.020Z,28.28
2023-08-05T09:30:42.328Z,28.15
2023-08-05T09:33:09.713Z,28.35
2023-08-05T09:35:37.007Z,28.62
2023-08-05T09:38:05.325Z,28.55
2023-08-05T09:40:40.500Z,28.44
2023-08-05T09:43:09.243Z,28.45
2023-08-05T09:45:37.084Z,28.40
2023-08-05T09:48:05.668Z,28.43
2023-08-05T09:50:33.344Z,28.56
2023-08-05T09:53:01.841Z,28.85
2023-08-05T09:55:29.669Z,29.05
2023-08-05T09:57:58.008Z,29.15
2023-08-05T10:00:25.894Z,29.05
2023-08-05T10:02:53.266Z,29.07
2023-08-05T10:05:22.030Z,29.16
2023-08-05T10:07:49.315Z,29.30
2023-08-05T10:10:23.995Z,29.25
2023-08-05T10:13:04.322Z,29.37
2023-08-05T10:15:36.892Z,29.07
2023-08-05T10:18:11.776Z,29.00
2023-08-05T10:20:39.835Z,29.27
2023-08-05T10:23:11.077Z,29.46
2023-08-05T10:25:51.193Z,29.29
2023-08-05T10:28:24.350Z,29.39
2023-08-05T10:30:52.938Z,29.49
2023-08-05T10:33:21.226Z,29.25
2023-08-05T10:35:51.002Z,29.37
2023-08-05T10:38:22.819Z,29.46
2023-08-05T10:40:57.696Z,29.55
2023-08-05T10:43:29.585Z,29.46
2023-08-05T10:45:57.002Z,29.42
2023-08-05T10:48:39.640Z,29.41
2023-08-05T10:51:15.966Z,29.42
2023-08-05T10:54:00.421Z,29.36
2023-08-05T10:56:38.450Z,29.46
2023-08-05T10:59:06.684Z,29.37
2023-08-05T11:01:57.802Z,29.42
2023-08-05T11:04:34.626Z,29.44
2023-08-05T11:07:03.612Z,29.40
2023-08-05T11:09:34.660Z,29.51
2023-08-05T11:12:02.720Z,29.14
2023-08-05T11:14:30.956Z,28.84
2023-08-05T11:17:06.812Z,28.90
2023-08-05T11:19:56.460Z,29.19
2023-08-05T11:22:27.592Z,29.29
2023-08-05T11:25:02.645Z,29.33
2023-08-05T11:27:37.409Z,29.52
2023-08-05T11:30:21.089Z,29.57
2023-08-05T11:32:57.385Z,29.62
2023-08-05T11:35:26.534Z,29.65
2023-08-05T11:37:54.824Z,29.60
2023-08-05T11:40:22.629Z,29.44
2023-08-05T11:42:50.116Z,29.28
2023-08-05T11:45:18.127Z,28.97
2023-08-05T11:47:46.311Z,28.85
2023-08-05T11:50:14.280Z,28.75
2023-08-05T11:52:41.986Z,28.89
2023-08-05T11:55:11.618Z,28.89
2023-08-05T11:57:39.216Z,29.08
2023-08-05T12:00:11.432Z,29.24
2023-08-05T12:02:39.195Z,29.29
2023-08-05T12:05:10.533Z,29.21
2023-08-05T12:07:43.125Z,29.16
2023-08-05T12:10:14.011Z,29.24
2023-08-05T12:12:46.277Z,29.27
2023-08-05T12:15:17.745Z,29.24
2023-08-05T12:17:52.438Z,29.13
2023-08-05T12:20:23.751Z,29.22
2023-08-05T12:22:54.160Z,29.13
2023-08-05T12:25:24.199Z,29.12
2023-08-05T12:27:51.409Z,29.13
2023-08-05T12:30:18.881Z,29.24
2023-08-05T12:32:46.289Z,29.20
2023-08-05T12:35:13.820Z,29.27
2023-08-05T12:37:43.213Z,29.07
2023-08-05T12:40:14.586Z,29.06
2023-08-05T12:42:42.161Z,29.04
2023-08-05T12:45:10.978Z,29.16
2023-08-05T12:47:40.357Z,29.22
2023-08-05T12:50:09.272Z,29.25
2023-08-05T12:52:36.976Z,29.28
2023-08-05T12:55:04.536Z,29.42
2023-08-05T12:57:33.613Z,29.31
2023-08-05T13:00:02.242Z,29.29
2023-08-05T13:02:35.564Z,29.39
2023-08-05T13:05:04.225Z,29.36
2023-08-05T13:07:33.449Z,29.34
2023-08-05T13:10:00.986Z,29.33
2023-08-05T13:12:28.226Z,29.39
2023-08-05T13:14:55.552Z,29.44
2023-08-05T13:17:22.882Z,29.43
2023-08-05T13:19:50.339Z,29.51
2023-08-05T13:22:18.185Z,29.50
2023-08-05T13:24:45.569Z,29.49
2023-08-05T13:27:13.333Z,29.54
2023-08-05T13:29:40.554Z,29.41
2023-08-05T13:32:07.945Z,29.39
2023-08-05T13:34:35.133Z,29.41
2023-08-05T13:37:02.393Z,29.46
2023-08-05T13:39:29.623Z,29.60
2023-08-05T13:42:01.617Z,29.61
2023-08-05T13:44:29.394Z,29.49
2023-08-05T13:46:56.727Z,29.29
2023-08-05T13:49:24.121Z,29.45
2023-08-05T13:51:52.836Z,29.44
2023-08-05T13:54:20.756Z,29.43
2023-08-05T13:56:48.060Z,29.33
2023-08-05T13:59:15.265Z,29.53
2023-08-05T14:01:45.097Z,29.58
2023-08-05T14:04:12.830Z,29.44
2023-08-05T14:06:40.048Z,29.53
2023-08-05T14:09:09.341Z,29.49
2023-08-05T14:11:37.471Z,29.52
2023-08-05T14:14:05.156Z,29.63
2023-08-05T14:16:32.940Z,29.55
2023-08-05T14:19:01.617Z,29.50
2023-08-05T14:21:29.619Z,29.59
2023-08-05T14:23:57.229Z,29.62
2023-08-05T14:26:24.861Z,29.61
2023-08-05T14:28:52.562Z,29.63
2023-08-05T14:31:19.966Z,29.65
2023-08-05T14:33:47.419Z,29.63
2023-08-05T14:36:14.890Z,29.61
2023-08-05T14:38:42.168Z,29.52
2023-08-05T14:41:16.371Z,29.57
2023-08-05T14:43:44.417Z,29.60
2023-08-05T14:46:11.713Z,29.55
2023-08-05T14:48:38.997Z,29.60
2023-08-05T14:51:06.176Z,29.55
2023-08-05T14:53:33.406Z,29.46
2023-08-05T14:56:01.579Z,29.49
2023-08-05T14:58:29.122Z,29.54
2023-08-05T15:00:56.731Z,29.50
2023-08-05T15:03:23.980Z,29.43
2023-08-05T15:05:56.176Z,29.43
2023-08-05T15:08:25.924Z,29.54
2023-08-05T15:11:00.054Z,29.48
2023-08-05T15:13:27.628Z,29.49
2023-08-05T15:15:54.995Z,29.50
2023-08-05T15:18:22.420Z,29.32
2023-08-05T15:20:50.828Z,29.29
2023-08-05T15:23:30.110Z,29.23
2023-08-05T15:26:01.473Z,29.13
2023-08-05T15:28:29.555Z,29.07
2023-08-05T15:30:57.318Z,29.02
2023-08-05T15:33:24.965Z,29.20
2023-08-05T15:35:52.420Z,29.29
2023-08-05T15:38:19.581Z,29.37
2023-08-05T15:40:46.900Z,29.42
2023-08-05T15:43:16.485Z,29.54
2023-08-05T15:45:55.760Z,29.67
2023-08-05T15:48:23.387Z,29.76
2023-08-05T15:50:50.765Z,29.92
2023-08-05T15:53:18.036Z,30.75
2023-08-05T15:55:45.372Z,31.30
2023-08-05T15:58:12.695Z,31.70
2023-08-05T16:00:39.971Z,32.24
2023-08-05T16:03:07.172Z,32.77
2023-08-05T16:05:34.326Z,33.30
2023-08-05T16:08:01.519Z,33.26
2023-08-05T16:10:28.850Z,33.23
2023-08-05T16:12:58.070Z,33.44
2023-08-05T16:15:25.638Z,33.70
2023-08-05T16:17:53.007Z,33.37
2023-08-05T16:20:20.237Z,32.45
2023-08-05T16:22:47.469Z,31.81
2023-08-05T16:25:14.660Z,31.38
2023-08-05T16:27:42.376Z,31.14
2023-08-05T16:30:10.055Z,30.58
2023-08-05T16:32:39.344Z,29.87
2023-08-05T16:35:06.952Z,29.57
2023-08-05T16:37:34.269Z,29.32
2023-08-05T16:40:01.524Z,29.12
2023-08-05T16:42:31.995Z,29.01
2023-08-05T16:44:59.158Z,28.91
2023-08-05T16:47:26.386Z,28.80
2023-08-05T16:49:53.606Z,28.74
2023-08-05T16:52:20.806Z,28.67
2023-08-05T16:54:47.996Z,28.55
2023-08-05T16:57:15.308Z,28.49
2023-08-05T16:59:42.518Z,28.39
2023-08-05T17:02:09.680Z,28.46
2023-08-05T17:04:36.899Z,28.40
2023-08-05T17:07:04.311Z,28.28
2023-08-05T17:09:31.460Z,28.22
2023-08-05T17:11:58.787Z,28.19
2023-08-05T17:14:26.004Z,28.16
2023-08-05T17:16:53.254Z,28.13
2023-08-05T17:19:20.535Z,28.07
2023-08-05T17:21:47.736Z,27.90
2023-08-05T17:24:14.949Z,27.91
2023-08-05T17:26:42.156Z,27.93
2023-08-05T17:29:09.346Z,27.89
2023-08-05T17:31:36.622Z,27.78
2023-08-05T17:34:03.859Z,27.75
2023-08-05T17:36:31.050Z,27.72
2023-08-05T17:38:58.241Z,27.70
2023-08-05T17:41:25.431Z,27.66
2023-08-05T17:43:52.623Z,27.64
2023-08-05T17:46:19.953Z,27.58
2023-08-05T17:48:47.215Z,27.50
2023-08-05T17:51:16.966Z,27.50
2023-08-05T17:53:44.253Z,27.44
2023-08-05T17:56:12.260Z,27.38
2023-08-05T17:58:39.464Z,27.32
2023-08-05T18:01:06.743Z,27.28
2023-08-05T18:03:33.996Z,27.23
2023-08-05T18:08:31.047Z,27.14
2023-08-05T18:10:58.146Z,27.08
2023-08-05T18:13:25.361Z,27.03
2023-08-05T18:15:52.708Z,26.98
2023-08-05T18:18:21.090Z,26.82
2023-08-05T18:20:51.123Z,26.83
2023-08-05T18:23:18.310Z,26.81
2023-08-05T18:25:45.554Z,26.83
2023-08-05T18:28:12.699Z,26.84
2023-08-05T18:30:39.993Z,26.79
2023-08-05T18:33:07.201Z,26.81
2023-08-05T18:35:34.577Z,26.76
2023-08-05T18:38:02.120Z,26.76
2023-08-05T18:40:29.447Z,26.75
2023-08-05T18:42:56.641Z,26.72
2023-08-05T18:45:23.902Z,26.72
2023-08-05T18:47:51.188Z,26.69
2023-08-05T18:50:18.441Z,26.65
2023-08-05T18:52:46.405Z,26.65
2023-08-05T18:55:13.598Z,26.63
2023-08-05T18:57:40.791Z,26.54
2023-08-05T19:00:09.940Z,26.49
2023-08-05T19:02:37.288Z,26.34
2023-08-05T19:05:05.078Z,26.27
2023-08-05T19:07:32.944Z,26.26
2023-08-05T19:10:03.054Z,26.27
2023-08-05T19:12:32.446Z,26.28
2023-08-05T19:14:59.689Z,26.35
2023-08-05T19:17:26.937Z,26.34
2023-08-05T19:19:54.276Z,26.37
2023-08-05T19:22:21.495Z,26.40
2023-08-05T19:24:48.673Z,26.40
2023-08-05T19:27:15.947Z,26.41
2023-08-05T19:29:43.125Z,26.35
2023-08-05T19:32:10.297Z,26.33
2023-08-05T19:34:37.493Z,26.28
2023-08-05T19:37:05.104Z,26.27
2023-08-05T19:39:33.731Z,26.27
2023-08-05T19:42:00.997Z,26.22
2023-08-05T19:44:28.324Z,26.14
2023-08-05T19:46:55.694Z,26.13
2023-08-05T19:49:23.391Z,26.14
2023-08-05T19:51:50.817Z,26.12
2023-08-05T19:54:18.118Z,26.06
2023-08-05T19:56:45.273Z,26.05
2023-08-05T19:59:12.648Z,25.96
2023-08-05T20:01:39.906Z,25.87
2023-08-05T20:04:07.130Z,25.76
2023-08-05T20:06:35.361Z,25.81
2023-08-05T20:09:02.608Z,25.74
2023-08-05T20:11:29.835Z,25.75
2023-08-05T20:13:57.046Z,25.75
2023-08-05T20:16:24.400Z,25.74
2023-08-05T20:18:51.597Z,25.82
2023-08-05T20:21:18.924Z,25.82
2023-08-05T20:23:46.364Z,25.76
2023-08-05T20:26:15.150Z,25.77
2023-08-05T20:28:42.520Z,25.72
2023-08-05T20:31:18.991Z,25.68
2023-08-05T20:33:46.370Z,25.66
2023-08-05T20:36:13.699Z,25.66
2023-08-05T20:38:40.899Z,25.68
2023-08-05T20:41:08.158Z,25.68
2023-08-05T20:43:35.360Z,25.64
2023-08-05T20:46:02.569Z,25.62
2023-08-05T20:48:29.791Z,25.60
2023-08-05T20:50:58.034Z,25.51
2023-08-05T20:53:26.047Z,25.50
2023-08-05T20:55:55.355Z,25.42
2023-08-05T20:58:22.842Z,25.23
2023-08-05T21:00:57.523Z,25.11
2023-08-05T21:03:24.809Z,25.22
2023-08-05T21:06:02.323Z,25.26
2023-08-05T21:08:30.219Z,25.21
2023-08-05T21:11:08.697Z,25.17
2023-08-05T21:13:37.601Z,25.20
2023-08-05T21:16:09.244Z,25.15
2023-08-05T21:18:36.620Z,25.21
2023-08-05T21:21:04.222Z,25.25
2023-08-05T21:23:31.477Z,25.16
2023-08-05T21:25:58.778Z,25.13
2023-08-05T21:28:26.314Z,25.15
2023-08-05T21:31:01.121Z,25.05
2023-08-05T21:33:29.710Z,24.90
2023-08-05T21:35:57.735Z,24.94
2023-08-05T21:38:24.967Z,24.99
2023-08-05T21:40:52.168Z,25.04
2023-08-05T21:43:19.863Z,25.03
2023-08-05T21:45:53.265Z,25.03
2023-08-05T21:48:22.230Z,25.00
2023-08-05T21:50:50.075Z,25.01
2023-08-05T21:53:17.844Z,24.99
2023-08-05T21:55:46.185Z,25.02
2023-08-05T21:58:13.489Z,24.85
2023-08-05T22:00:40.710Z,24.80
2023-08-05T22:03:08.252Z,24.84
2023-08-05T22:05:35.575Z,24.85
2023-08-05T22:08:02.782Z,24.78
2023-08-05T22:10:30.250Z,24.84
2023-08-05T22:12:58.408Z,24.88
2023-08-05T22:15:45.240Z,24.83
2023-08-05T22:18:13.059Z,24.86
2023-08-05T22:21:00.465Z,24.87
2023-08-05T22:23:27.681Z,24.86
2023-08-05T22:25:55.367Z,24.84
2023-08-05T22:28:22.687Z,24.82
2023-08-05T22:30:57.077Z,24.80
2023-08-05T22:33:24.435Z,24.77
2023-08-05T22:35:51.707Z,24.67
2023-08-05T22:38:21.101Z,24.72
2023-08-05T22:40:48.346Z,24.70
2023-08-05T22:43:15.554Z,24.70
2023-08-05T22:45:42.930Z,24.68
2023-08-05T22:48:10.116Z,24.62
2023-08-05T22:50:41.383Z,24.58
2023-08-05T22:53:08.665Z,24.55
2023-08-05T22:55:37.263Z,24.50
2023-08-05T22:58:04.748Z,24.43
2023-08-05T23:00:32.016Z,24.51
2023-08-05T23:02:59.533Z,24.50
2023-08-05T23:05:26.769Z,24.49
2023-08-05T23:07:54.049Z,24.46
2023-08-05T23:10:21.932Z,24.51
2023-08-05T23:12:51.766Z,24.52
2023-08-05T23:15:18.957Z,24.47
2023-08-05T23:17:46.268Z,24.46
2023-08-05T23:20:13.781Z,24.42
2023-08-05T23:22:41.177Z,24.41
2023-08-05T23:25:08.684Z,24.38
2023-08-05T23:27:35.897Z,24.39
2023-08-05T23:30:03.259Z,24.38
2023-08-05T23:32:33.159Z,24.33
2023-08-05T23:35:00.368Z,24.36
2023-08-05T23:37:27.539Z,24.33
2023-08-05T23:39:54.675Z,24.36
2023-08-05T23:42:21.871Z,24.34
2023-08-05T23:44:51.018Z,24.32
2023-08-05T23:47:18.266Z,24.34
2023-08-05T23:49:45.423Z,24.35
2023-08-05T23:52:12.772Z,24.29
2023-08-05T23:54:40.002Z,24.24
2023-08-05T23:57:07.319Z,24.25
2023-08-05T23:59:34.531Z,24.21
